createdAt,value
2023-05-18T00:02:11.370Z,0.55
2023-05-18T00:04:38.257Z,0.36
2023-05-18T00:07:05.098Z,0.29
2023-05-18T00:09:34.929Z,0.22
2023-05-18T00:12:05.174Z,0.16
2023-05-18T00:14:32.041Z,0.18
2023-05-18T00:16:58.835Z,0.17
2023-05-18T00:19:25.793Z,0.14
2023-05-18T00:21:52.790Z,0.27
2023-05-18T00:24:19.914Z,0.18
2023-05-18T00:26:48.645Z,0.19
2023-05-18T00:29:16.873Z,0.15
2023-05-18T00:31:43.717Z,0.17
2023-05-18T00:34:11.745Z,0.18
2023-05-18T00:36:39.027Z,0.16
2023-05-18T00:39:07.063Z,0.54
2023-05-18T00:41:33.985Z,0.46
2023-05-18T00:44:01.124Z,0.38
2023-05-18T00:46:29.472Z,0.42
2023-05-18T00:48:57.209Z,0.81
2023-05-18T00:51:24.963Z,0.50
2023-05-18T00:53:53.705Z,0.35
2023-05-18T00:56:21.551Z,0.72
2023-05-18T00:58:48.347Z,0.49
2023-05-18T01:01:15.338Z,0.36
2023-05-18T01:03:43.484Z,0.70
2023-05-18T01:06:10.514Z,0.44
2023-05-18T01:08:37.726Z,0.57
2023-05-18T01:11:15.035Z,0.35
2023-05-18T01:13:53.555Z,0.66
2023-05-18T01:16:30.438Z,0.48
2023-05-18T01:19:06.272Z,0.35
2023-05-18T01:21:48.163Z,1.00
2023-05-18T01:24:26.673Z,0.72
2023-05-18T01:26:59.273Z,0.48
2023-05-18T01:29:26.631Z,1.60
2023-05-18T01:31:53.433Z,0.91
2023-05-18T01:34:20.313Z,0.68
2023-05-18T01:36:47.166Z,0.41
2023-05-18T01:39:14.292Z,0.26
2023-05-18T01:41:49.049Z,0.56
2023-05-18T01:44:22.088Z,1.06
2023-05-18T01:46:55.122Z,2.00
2023-05-18T01:49:29.133Z,1.13
2023-05-18T01:51:58.237Z,0.68
2023-05-18T01:54:26.719Z,1.27
2023-05-18T01:56:55.410Z,0.72
2023-05-18T01:59:23.886Z,0.58
2023-05-18T02:01:51.164Z,0.40
2023-05-18T02:04:26.598Z,0.35
2023-05-18T02:06:54.021Z,0.33
2023-05-18T02:09:22.576Z,0.28
2023-05-18T02:11:49.391Z,0.30
2023-05-18T02:14:16.217Z,0.31
2023-05-18T02:16:44.542Z,0.21
2023-05-18T02:19:11.492Z,0.19
2023-05-18T02:21:38.344Z,0.16
2023-05-18T02:24:06.046Z,0.19
2023-05-18T02:26:32.973Z,0.28
2023-05-18T02:28:59.788Z,0.33
2023-05-18T02:31:26.696Z,0.22
2023-05-18T02:33:54.967Z,0.20
2023-05-18T02:36:21.820Z,0.25
2023-05-18T02:38:48.597Z,0.88
2023-05-18T02:41:15.512Z,0.73
2023-05-18T02:43:42.595Z,0.44
2023-05-18T02:46:09.392Z,0.34
2023-05-18T02:48:36.394Z,0.32
2023-05-18T02:51:05.042Z,0.45
2023-05-18T02:53:31.847Z,0.37
2023-05-18T02:55:58.713Z,0.36
2023-05-18T02:58:25.649Z,0.22
2023-05-18T03:00:53.460Z,0.48
2023-05-18T03:03:20.610Z,0.52
2023-05-18T03:05:53.654Z,0.44
2023-05-18T03:08:22.473Z,0.23
2023-05-18T03:10:49.476Z,0.19
2023-05-18T03:13:16.269Z,0.80
2023-05-18T03:15:43.358Z,0.53
2023-05-18T03:18:10.186Z,1.48
2023-05-18T03:20:37.133Z,1.33
2023-05-18T03:23:04.201Z,0.80
2023-05-18T03:25:33.448Z,0.61
2023-05-18T03:28:00.227Z,0.85
2023-05-18T03:30:27.108Z,0.47
2023-05-18T03:32:53.995Z,1.06
2023-05-18T03:35:20.925Z,1.21
2023-05-18T03:37:47.798Z,0.85
2023-05-18T03:40:15.926Z,0.84
2023-05-18T03:42:44.296Z,0.59
2023-05-18T03:45:11.629Z,1.03
2023-05-18T03:47:39.430Z,0.86
2023-05-18T03:50:07.094Z,0.53
2023-05-18T03:52:34.476Z,0.38
2023-05-18T03:55:01.707Z,0.91
2023-05-18T03:57:28.864Z,0.57
2023-05-18T03:59:57.521Z,0.40
2023-05-18T04:02:24.720Z,0.26
2023-05-18T04:04:51.854Z,0.50
2023-05-18T04:07:18.712Z,0.73
2023-05-18T04:09:45.636Z,0.95
2023-05-18T04:12:12.533Z,0.60
2023-05-18T04:14:39.368Z,0.49
2023-05-18T04:17:07.712Z,0.31
2023-05-18T04:19:35.358Z,0.44
2023-05-18T04:22:02.711Z,0.33
2023-05-18T04:24:29.466Z,1.40
2023-05-18T04:26:56.269Z,2.07
2023-05-18T04:29:26.043Z,1.60
2023-05-18T04:31:52.932Z,1.00
2023-05-18T04:34:21.105Z,0.77
2023-05-18T04:36:50.540Z,0.76
2023-05-18T04:39:17.380Z,0.64
2023-05-18T04:41:44.241Z,0.41
2023-05-18T04:44:11.075Z,0.31
2023-05-18T04:46:37.945Z,0.26
2023-05-18T04:49:04.716Z,0.56
2023-05-18T04:51:32.989Z,0.52
2023-05-18T04:53:59.801Z,0.43
2023-05-18T04:56:26.562Z,0.35
2023-05-18T04:58:53.378Z,0.28
2023-05-18T05:01:20.225Z,0.45
2023-05-18T05:03:47.156Z,0.47
2023-05-18T05:06:14.173Z,0.54
2023-05-18T05:08:42.345Z,0.74
2023-05-18T05:11:09.295Z,0.61
2023-05-18T05:13:36.064Z,0.46
2023-05-18T05:16:03.030Z,0.72
2023-05-18T05:18:30.156Z,0.48
2023-05-18T05:20:58.139Z,0.36
2023-05-18T05:23:25.145Z,0.63
2023-05-18T05:25:53.501Z,0.97
2023-05-18T05:28:20.385Z,1.76
2023-05-18T05:30:47.190Z,1.07
2023-05-18T05:33:14.035Z,0.98
2023-05-18T05:35:41.225Z,0.63
2023-05-18T05:38:08.062Z,1.01
2023-05-18T05:40:34.878Z,0.65
2023-05-18T05:43:04.461Z,1.15
2023-05-18T05:45:31.598Z,0.91
2023-05-18T05:47:58.909Z,0.99
2023-05-18T05:50:26.777Z,1.80
2023-05-18T05:52:53.734Z,1.32
2023-05-18T05:55:20.757Z,1.07
2023-05-18T05:57:47.580Z,1.05
2023-05-18T06:00:16.509Z,0.65
2023-05-18T06:02:43.727Z,1.11
2023-05-18T06:05:11.128Z,1.00
2023-05-18T06:07:38.035Z,0.80
2023-05-18T06:10:05.457Z,0.47
2023-05-18T06:12:32.255Z,0.44
2023-05-18T06:14:59.203Z,1.39
2023-05-18T06:17:27.859Z,1.34
2023-05-18T06:19:54.769Z,0.82
2023-05-18T06:22:21.632Z,0.91
2023-05-18T06:24:48.373Z,3.12
2023-05-18T06:27:15.288Z,1.75
2023-05-18T06:29:42.155Z,1.13
2023-05-18T06:32:09.035Z,0.85
2023-05-18T06:34:37.295Z,0.62
2023-05-18T06:37:04.384Z,0.45
2023-05-18T06:39:31.269Z,0.77
2023-05-18T06:41:58.028Z,0.50
2023-05-18T06:44:24.821Z,0.61
2023-05-18T06:46:51.776Z,0.37
2023-05-18T06:49:18.622Z,0.32
2023-05-18T06:51:46.748Z,0.93
2023-05-18T06:54:13.868Z,0.59
2023-05-18T06:56:40.658Z,0.83
2023-05-18T06:59:07.518Z,1.06
2023-05-18T07:01:34.400Z,0.69
2023-05-18T07:04:01.358Z,0.42
2023-05-18T07:06:28.467Z,0.34
2023-05-18T07:08:56.598Z,0.50
2023-05-18T07:11:23.469Z,0.90
2023-05-18T07:13:50.282Z,0.57
2023-05-18T07:16:17.126Z,0.91
2023-05-18T07:18:44.035Z,0.90
2023-05-18T07:21:11.139Z,0.62
2023-05-18T07:23:37.994Z,0.38
2023-05-18T07:26:06.199Z,0.20
2023-05-18T07:28:33.043Z,0.15
2023-05-18T07:31:00.060Z,0.57
2023-05-18T07:33:26.957Z,0.40
2023-05-18T07:35:53.862Z,0.41
2023-05-18T07:38:20.631Z,0.30
2023-05-18T07:40:47.478Z,0.44
2023-05-18T07:43:16.829Z,0.30
2023-05-18T07:45:43.825Z,0.25
2023-05-18T07:48:10.715Z,0.26
2023-05-18T07:50:37.559Z,0.23
2023-05-18T07:53:04.404Z,0.26
2023-05-18T08:26:09.768Z,0.36
2023-05-18T08:28:37.441Z,0.24
2023-05-18T08:31:04.696Z,0.22
2023-05-18T08:33:37.411Z,0.68
2023-05-18T08:36:04.691Z,1.17
2023-05-18T08:38:42.549Z,0.72
2023-05-18T08:41:47.028Z,0.43
2023-05-18T08:44:22.393Z,0.27
2023-05-18T08:47:45.465Z,0.48
2023-05-18T08:50:22.069Z,0.41
2023-05-18T08:52:56.056Z,0.31
2023-05-18T08:55:33.187Z,0.33
2023-05-18T08:58:37.897Z,0.32
2023-05-18T09:01:36.136Z,0.22
2023-05-18T09:16:13.565Z,0.17
2023-05-18T09:19:19.952Z,0.54
2023-05-18T09:22:44.260Z,0.58
2023-05-18T09:25:54.286Z,0.91
2023-05-18T09:35:32.651Z,0.31
2023-05-18T09:38:05.381Z,0.29
2023-05-18T09:40:39.229Z,0.28
2023-05-18T09:43:10.120Z,1.16
2023-05-18T09:45:42.970Z,0.71
2023-05-18T09:48:13.696Z,0.42
2023-05-18T09:50:43.596Z,0.81
2023-05-18T09:53:14.420Z,0.51
2023-05-18T09:55:50.273Z,0.33
2023-05-18T09:58:17.943Z,0.28
2023-05-18T10:00:49.034Z,0.40
2023-05-18T10:03:21.435Z,0.29
2023-05-18T10:05:52.238Z,0.37
2023-05-18T10:08:19.898Z,0.36
2023-05-18T10:10:48.485Z,0.25
2023-05-18T10:13:18.383Z,0.18
2023-05-18T10:15:48.065Z,0.19
2023-05-18T10:18:22.085Z,0.41
2023-05-18T10:20:57.242Z,0.27
2023-05-18T10:23:28.126Z,5.25
2023-05-18T10:25:55.369Z,2.91
2023-05-18T10:28:26.284Z,3.88
2023-05-18T10:30:55.333Z,2.16
2023-05-18T10:33:29.020Z,1.24
2023-05-18T10:36:03.913Z,0.74
2023-05-18T10:38:32.105Z,0.74
2023-05-18T10:41:06.511Z,0.54
2023-05-18T10:43:34.488Z,0.38
2023-05-18T10:46:02.141Z,0.58
2023-05-18T10:48:30.027Z,0.40
2023-05-18T10:50:58.931Z,0.28
2023-05-18T10:53:27.157Z,0.29
2023-05-18T10:55:55.223Z,1.55
2023-05-18T10:58:25.285Z,1.07
2023-05-18T11:00:56.134Z,0.64
2023-05-18T11:03:25.868Z,0.48
2023-05-18T11:06:05.848Z,0.35
2023-05-18T11:08:36.202Z,0.28
2023-05-18T11:11:09.058Z,0.20
2023-05-18T11:13:43.648Z,0.20
2023-05-18T11:16:15.000Z,0.25
2023-05-18T11:18:48.067Z,0.53
2023-05-18T11:21:30.333Z,0.49
2023-05-18T11:24:22.139Z,0.35
2023-05-18T11:26:53.208Z,0.69
2023-05-18T11:29:26.297Z,0.42
2023-05-18T11:32:29.885Z,0.43
2023-05-18T11:34:57.331Z,0.28
2023-05-18T11:37:50.527Z,0.27
2023-05-18T11:40:45.387Z,0.44
2023-05-18T11:43:20.783Z,0.33
2023-05-18T11:45:58.977Z,0.46
2023-05-18T11:48:28.168Z,0.51
2023-05-18T11:50:55.399Z,0.49
2023-05-18T11:53:25.187Z,0.35
2023-05-18T11:55:53.093Z,0.46
2023-05-18T11:58:20.235Z,0.32
2023-05-18T12:00:48.416Z,0.37
2023-05-18T12:03:15.749Z,0.54
2023-05-18T12:05:43.845Z,0.61
2023-05-18T12:08:11.736Z,0.37
2023-05-18T12:10:40.528Z,0.24
2023-05-18T12:13:08.082Z,0.51
2023-05-18T12:15:36.614Z,0.47
2023-05-18T12:18:03.784Z,0.41
2023-05-18T12:20:30.852Z,0.67
2023-05-18T12:22:58.998Z,0.69
2023-05-18T12:25:27.302Z,0.95
2023-05-18T12:27:56.038Z,0.67
2023-05-18T12:30:23.933Z,0.41
2023-05-18T12:32:52.720Z,0.75
2023-05-18T12:35:22.659Z,0.52
2023-05-18T12:37:49.587Z,0.37
2023-05-18T12:40:18.443Z,0.72
2023-05-18T12:42:52.286Z,0.58
2023-05-18T12:45:23.215Z,0.76
2023-05-18T12:47:50.193Z,0.47
2023-05-18T12:50:17.230Z,0.44
2023-05-18T12:52:44.360Z,0.50
2023-05-18T12:55:18.063Z,0.80
2023-05-18T12:57:44.946Z,1.19
2023-05-18T13:00:13.014Z,0.68
2023-05-18T13:02:41.544Z,0.70
2023-05-18T13:05:10.471Z,0.51
2023-05-18T13:07:39.872Z,1.72
2023-05-18T13:10:08.606Z,1.63
2023-05-18T13:12:39.535Z,0.99
2023-05-18T13:15:12.143Z,1.21
2023-05-18T13:17:39.553Z,0.74
2023-05-18T13:20:14.816Z,0.63
2023-05-18T13:22:43.053Z,1.21
2023-05-18T13:25:10.482Z,1.05
2023-05-18T13:27:40.744Z,0.60
2023-05-18T13:30:09.200Z,1.09
2023-05-18T13:32:36.192Z,0.73
2023-05-18T13:35:03.228Z,0.44
2023-05-18T13:37:31.499Z,0.87
2023-05-18T13:39:58.381Z,0.56
2023-05-18T13:42:25.385Z,0.48
2023-05-18T13:44:52.361Z,0.33
2023-05-18T13:47:19.652Z,0.44
2023-05-18T13:49:46.509Z,0.37
2023-05-18T13:52:13.383Z,0.56
2023-05-18T13:54:41.714Z,0.49
2023-05-18T13:57:08.751Z,0.31
2023-05-18T13:59:35.656Z,0.26
2023-05-18T14:02:02.727Z,0.95
2023-05-18T14:04:29.691Z,1.26
2023-05-18T14:06:56.794Z,0.81
2023-05-18T14:09:23.910Z,0.48
2023-05-18T14:11:53.790Z,0.45
2023-05-18T14:14:21.009Z,0.34
2023-05-18T14:16:48.336Z,0.28
2023-05-18T14:19:15.420Z,0.53
2023-05-18T14:21:42.595Z,0.39
2023-05-18T14:24:11.207Z,0.62
2023-05-18T14:26:38.071Z,0.40
2023-05-18T14:29:06.299Z,0.54
2023-05-18T14:31:33.283Z,0.45
2023-05-18T14:34:04.464Z,0.39
2023-05-18T14:36:39.766Z,0.32
2023-05-18T14:39:06.908Z,0.37
2023-05-18T14:41:37.294Z,0.56
2023-05-18T14:44:10.565Z,0.48
2023-05-18T14:46:39.819Z,0.36
2023-05-18T14:49:11.105Z,0.24
2023-05-18T14:51:41.093Z,0.49
2023-05-18T14:54:10.674Z,0.57
2023-05-18T14:56:38.838Z,0.40
2023-05-18T14:59:05.671Z,0.33
2023-05-18T15:01:33.922Z,0.38
2023-05-18T15:04:00.924Z,0.37
2023-05-18T15:06:28.358Z,0.42
2023-05-18T15:08:55.303Z,0.31
2023-05-18T15:11:22.871Z,0.30
2023-05-18T15:13:50.387Z,0.25
2023-05-18T15:16:17.723Z,0.32
2023-05-18T15:18:46.716Z,0.39
2023-05-18T15:21:13.829Z,0.35
2023-05-18T15:23:41.187Z,0.37
2023-05-18T15:26:09.327Z,0.73
2023-05-18T15:28:36.248Z,0.48
2023-05-18T15:31:03.325Z,0.30
2023-05-18T15:33:30.613Z,0.25
2023-05-18T15:35:58.853Z,0.23
2023-05-18T15:38:25.997Z,0.30
2023-05-18T15:40:54.674Z,0.38
2023-05-18T15:43:21.948Z,0.34
2023-05-18T15:45:48.923Z,0.35
2023-05-18T15:48:15.784Z,0.33
2023-05-18T15:50:42.655Z,0.30
2023-05-18T15:53:10.998Z,0.25
2023-05-18T15:55:38.122Z,0.78
2023-05-18T15:58:04.946Z,0.55
2023-05-18T16:00:32.042Z,0.48
2023-05-18T16:03:01.842Z,0.41
2023-05-18T16:05:28.961Z,0.31
2023-05-18T16:08:01.040Z,0.32
2023-05-18T16:10:29.898Z,0.82
2023-05-18T16:12:57.034Z,0.53
2023-05-18T16:15:23.926Z,0.42
2023-05-18T16:17:50.771Z,0.85
2023-05-18T16:20:17.661Z,0.92
2023-05-18T16:22:44.524Z,0.75
2023-05-18T16:25:11.307Z,0.60
2023-05-18T16:27:39.528Z,0.41
2023-05-18T16:30:07.644Z,0.78
2023-05-18T16:32:34.635Z,0.64
2023-05-18T16:35:01.499Z,0.53
2023-05-18T16:37:28.337Z,0.57
2023-05-18T16:39:55.194Z,1.20
2023-05-18T16:42:22.344Z,1.07
2023-05-18T16:44:50.528Z,0.76
2023-05-18T16:47:17.495Z,0.71
2023-05-18T16:49:44.576Z,0.92
2023-05-18T16:52:11.800Z,0.75
2023-05-18T16:54:38.651Z,0.60
2023-05-18T16:57:05.974Z,1.11
2023-05-18T16:59:32.900Z,1.01
2023-05-18T17:02:01.221Z,1.04
2023-05-18T17:04:28.117Z,0.77
2023-05-18T17:06:56.499Z,0.64
2023-05-18T17:09:23.527Z,0.67
2023-05-18T17:11:50.295Z,0.99
2023-05-18T17:14:17.241Z,1.58
2023-05-18T17:16:44.254Z,1.77
2023-05-18T17:19:14.833Z,1.08
2023-05-18T17:21:41.986Z,0.86
2023-05-18T17:24:09.105Z,0.86
2023-05-18T17:26:36.310Z,0.70
2023-05-18T17:29:05.585Z,0.60
2023-05-18T17:31:33.396Z,0.46
2023-05-18T17:34:16.714Z,1.26
2023-05-18T17:36:46.007Z,1.15
2023-05-18T17:39:18.634Z,1.14
2023-05-18T17:41:45.607Z,0.96
2023-05-18T17:44:15.880Z,1.04
2023-05-18T17:46:46.884Z,0.98
2023-05-18T17:49:14.665Z,0.84
2023-05-18T17:51:42.123Z,0.54
2023-05-18T17:54:11.268Z,3.39
2023-05-18T17:56:39.312Z,6.23
2023-05-18T17:59:07.617Z,4.58
2023-05-18T18:01:37.678Z,2.73
2023-05-18T18:04:06.127Z,1.87
2023-05-18T18:06:33.177Z,1.82
2023-05-18T18:09:00.024Z,1.57
2023-05-18T18:11:28.315Z,1.39
2023-05-18T18:13:55.675Z,2.55
2023-05-18T18:16:23.367Z,2.14
2023-05-18T18:18:50.418Z,1.74
2023-05-18T18:21:17.321Z,1.11
2023-05-18T18:23:44.209Z,1.20
2023-05-18T18:26:11.317Z,0.79
2023-05-18T18:28:39.649Z,0.91
2023-05-18T18:31:06.743Z,3.13
2023-05-18T18:33:33.791Z,1.82
2023-05-18T18:36:00.883Z,1.21
2023-05-18T18:38:27.825Z,0.83
2023-05-18T18:40:55.216Z,0.58
2023-05-18T18:43:22.640Z,0.59
2023-05-18T18:45:51.601Z,0.77
2023-05-18T18:48:19.975Z,1.00
2023-05-18T18:50:47.338Z,1.08
2023-05-18T18:53:15.303Z,1.34
2023-05-18T18:55:42.200Z,1.26
2023-05-18T18:58:09.276Z,0.89
2023-05-18T19:00:36.333Z,0.72
2023-05-18T19:03:08.092Z,1.61
2023-05-18T19:05:35.318Z,1.30
2023-05-18T19:08:02.471Z,1.20
2023-05-18T19:10:29.566Z,2.34
2023-05-18T19:12:56.549Z,1.34
2023-05-18T19:15:23.536Z,1.34
2023-05-18T19:17:50.707Z,0.83
2023-05-18T19:20:19.412Z,0.78
2023-05-18T19:22:46.190Z,0.54
2023-05-18T19:25:14.257Z,0.96
2023-05-18T19:27:41.177Z,1.96
2023-05-18T19:30:08.962Z,1.44
2023-05-18T19:32:36.023Z,0.91
2023-05-18T19:35:02.906Z,0.73
2023-05-18T19:37:31.065Z,1.02
2023-05-18T19:39:57.927Z,1.15
2023-05-18T19:42:24.707Z,1.16
2023-05-18T19:44:51.597Z,1.70
2023-05-18T19:47:18.386Z,1.46
2023-05-18T19:49:45.150Z,1.24
2023-05-18T19:52:12.010Z,0.94
2023-05-18T19:54:40.598Z,0.93
2023-05-18T19:57:07.430Z,0.83
2023-05-18T19:59:34.245Z,0.70
2023-05-18T20:02:01.253Z,1.08
2023-05-18T20:04:29.228Z,1.43
2023-05-18T20:06:57.634Z,1.29
2023-05-18T20:09:24.401Z,1.18
2023-05-18T20:11:52.641Z,1.04
2023-05-18T20:14:19.633Z,1.02
2023-05-18T20:16:46.555Z,2.87
2023-05-18T20:19:14.505Z,2.33
2023-05-18T20:21:41.403Z,1.80
2023-05-18T20:24:08.251Z,1.25
2023-05-18T20:26:35.149Z,1.10
2023-05-18T20:29:03.299Z,0.96
2023-05-18T20:31:30.109Z,0.83
2023-05-18T20:33:57.049Z,0.66
2023-05-18T20:36:24.446Z,0.54
2023-05-18T20:38:51.371Z,0.88
2023-05-18T20:41:18.435Z,0.77
2023-05-18T20:43:45.412Z,0.77
2023-05-18T20:46:13.761Z,0.75
2023-05-18T20:48:40.641Z,1.37
2023-05-18T20:51:07.496Z,0.92
2023-05-18T20:53:34.347Z,0.76
2023-05-18T20:56:02.889Z,0.75
2023-05-18T20:58:29.684Z,1.10
2023-05-18T21:00:56.446Z,0.75
2023-05-18T21:03:24.801Z,0.88
2023-05-18T21:05:52.045Z,0.86
2023-05-18T21:08:18.925Z,0.74
2023-05-18T21:10:45.707Z,0.68
2023-05-18T21:13:12.585Z,0.56
2023-05-18T21:15:39.483Z,0.58
2023-05-18T21:18:07.331Z,0.49
2023-05-18T21:20:35.708Z,0.45
2023-05-18T21:23:03.016Z,0.48
2023-05-18T21:25:30.370Z,1.07
2023-05-18T21:27:57.185Z,0.73
2023-05-18T21:30:24.082Z,1.00
2023-05-18T21:32:51.163Z,0.81
2023-05-18T21:35:18.146Z,0.83
2023-05-18T21:37:46.349Z,0.95
2023-05-18T21:40:13.256Z,1.10
2023-05-18T21:42:40.052Z,0.80
2023-05-18T21:45:10.478Z,0.72
2023-05-18T21:47:37.515Z,0.68
2023-05-18T21:50:04.879Z,0.88
2023-05-18T21:52:31.670Z,0.83
2023-05-18T21:55:00.209Z,1.29
2023-05-18T21:57:27.135Z,0.92
2023-05-18T21:59:54.252Z,0.74
2023-05-18T22:02:22.300Z,0.64
2023-05-18T22:04:49.877Z,1.06
2023-05-18T22:07:16.861Z,0.89
2023-05-18T22:09:43.713Z,1.12
2023-05-18T22:12:11.903Z,1.36
2023-05-18T22:14:39.430Z,1.53
2023-05-18T22:17:06.316Z,1.05
2023-05-18T22:19:33.350Z,0.84
2023-05-18T22:22:00.540Z,0.77
2023-05-18T22:24:27.662Z,1.07
2023-05-18T22:26:54.966Z,1.24
2023-05-18T22:29:23.788Z,2.80
2023-05-18T22:31:50.877Z,2.10
2023-05-18T22:34:17.708Z,1.66
2023-05-18T22:36:44.558Z,1.12
2023-05-18T22:39:11.688Z,1.07
2023-05-18T22:41:38.644Z,1.22
2023-05-18T22:44:06.732Z,1.07
2023-05-18T22:46:35.609Z,0.86
2023-05-18T22:49:02.601Z,1.07
2023-05-18T22:51:29.666Z,1.36
2023-05-18T22:53:56.812Z,1.34
2023-05-18T22:56:24.154Z,1.56
2023-05-18T22:58:51.670Z,1.40
2023-05-18T23:01:18.641Z,1.22
2023-05-18T23:03:47.013Z,1.51
2023-05-18T23:06:14.300Z,1.45
2023-05-18T23:08:41.302Z,1.16
2023-05-18T23:11:08.133Z,1.11
2023-05-18T23:13:35.153Z,1.48
2023-05-18T23:16:02.223Z,1.41
2023-05-18T23:18:29.044Z,1.33
2023-05-18T23:20:57.355Z,1.43
2023-05-18T23:23:27.549Z,1.76
2023-05-18T23:25:54.815Z,1.44
2023-05-18T23:28:21.682Z,1.21
2023-05-18T23:30:51.675Z,1.26
2023-05-18T23:33:19.331Z,1.27
2023-05-18T23:35:47.389Z,1.34
2023-05-18T23:38:16.530Z,2.01
2023-05-18T23:40:44.158Z,1.71
2023-05-18T23:43:11.395Z,1.74
2023-05-18T23:45:39.056Z,1.83
2023-05-18T23:48:06.819Z,2.31
2023-05-18T23:50:34.369Z,2.20
2023-05-18T23:53:03.744Z,2.69
2023-05-18T23:55:35.039Z,2.33
2023-05-18T23:58:02.704Z,2.07
